Time;durP1;ratioP1;P1;durP2;ratioP2;P2;SDS_P1;SDS_P2;PMS_P1;PMS_P2;Temp;Humidity;BMP_temperature;BMP_pressure;BME280_temperature;BME280_humidity;BME280_pressure;Samples;Min_cycle;Max_cycle;Signal;HPM_P1;HPM_P2
2022/06/05 00:00:06;;;;;;;0.00;0.00;;;15.20;99.90;;;;;;5064651;28;20033;-73
2022/06/05 00:03:05;;;;;;;0.00;0.00;;;15.40;99.90;;;;;;5069963;28;20284;-73
2022/06/05 00:05:59;;;;;;;0.00;0.00;;;15.40;99.90;;;;;;5071566;28;20369;-73
2022/06/05 00:08:44;;;;;;;0.00;0.00;;;15.60;99.90;;;;;;5072925;28;20020;-73
2022/06/05 00:11:12;;;;;;;0.00;0.00;;;15.80;99.90;;;;;;5069565;28;20032;-73
2022/06/05 00:13:37;;;;;;;0.00;0.00;;;15.90;99.90;;;;;;5067819;28;20476;-73
2022/06/05 00:16:05;;;;;;;0.00;0.00;;;16.10;99.90;;;;;;5067554;28;20067;-73
2022/06/05 00:18:36;;;;;;;1.83;1.80;;;16.30;99.90;;;;;;5065210;28;20085;-73
2022/06/05 00:21:03;;;;;;;0.85;0.85;;;17.00;99.90;;;;;;5061789;28;20378;-73
2022/06/05 00:23:30;;;;;;;0.00;0.00;;;18.00;99.90;;;;;;5063058;28;20052;-71
2022/06/05 00:26:03;;;;;;;0.00;0.00;;;19.20;97.10;;;;;;5063707;28;20036;-72
2022/06/05 00:28:56;;;;;;;0.00;0.00;;;20.30;80.00;;;;;;5063463;28;20021;-72
2022/06/05 00:31:31;;;;;;;0.00;0.00;;;21.30;73.20;;;;;;5061183;28;20041;-72
2022/06/05 00:33:57;;;;;;;0.00;0.00;;;22.40;64.20;;;;;;5066748;28;20025;-72
2022/06/05 00:36:23;;;;;;;0.00;0.00;;;22.80;56.20;;;;;;5064582;28;20027;-73
2022/06/05 00:39:02;;;;;;;0.38;0.10;;;23.20;53.80;;;;;;5062981;28;20028;-73
2022/06/05 00:41:40;;;;;;;0.00;0.00;;;23.10;52.30;;;;;;5065460;28;20059;-73
2022/06/05 00:44:10;;;;;;;0.00;0.00;;;23.30;52.60;;;;;;5066095;28;20021;-72
2022/06/05 00:46:37;;;;;;;0.00;0.00;;;23.80;51.00;;;;;;5062820;28;20023;-73
2022/06/05 00:49:06;;;;;;;0.00;0.00;;;24.60;50.90;;;;;;5064662;28;20027;-74
2022/06/05 00:51:33;;;;;;;0.10;0.10;;;25.20;49.60;;;;;;5045794;28;20025;-73
2022/06/05 00:53:59;;;;;;;0.10;0.10;;;25.70;49.90;;;;;;5064762;28;20040;-73
2022/06/05 00:56:25;;;;;;;0.00;0.00;;;25.90;47.20;;;;;;5072473;28;20028;-73
2022/06/05 00:58:52;;;;;;;0.00;0.00;;;25.60;46.50;;;;;;5064623;28;20423;-73
2022/06/05 01:01:19;;;;;;;0.00;0.00;;;25.60;47.00;;;;;;5067327;28;20027;-73
2022/06/05 01:03:45;;;;;;;0.00;0.00;;;26.10;47.20;;;;;;5064829;28;20028;-74
2022/06/05 01:06:13;;;;;;;0.10;0.10;;;26.90;45.50;;;;;;5061973;28;20047;-72
2022/06/05 01:08:40;;;;;;;0.00;0.00;;;27.60;44.80;;;;;;5072644;28;20052;-73
2022/06/05 01:11:12;;;;;;;0.25;0.25;;;28.60;42.40;;;;;;5073645;28;20055;-73
2022/06/05 01:14:09;;;;;;;0.00;0.00;;;27.90;42.90;;;;;;5072701;28;20025;-73
2022/06/05 01:16:53;;;;;;;0.00;0.00;;;28.00;42.60;;;;;;5064916;28;20048;-73
2022/06/05 01:19:22;;;;;;;0.10;0.10;;;28.70;41.70;;;;;;5067130;28;20020;-73
2022/06/05 01:22:28;;;;;;;0.00;0.00;;;29.40;40.20;;;;;;5062304;28;20067;-73
2022/06/05 01:25:31;;;;;;;0.10;0.10;;;30.60;41.90;;;;;;5061311;28;20039;-73
2022/06/05 01:28:03;;;;;;;0.73;0.70;;;30.30;38.40;;;;;;5063614;28;20044;-73
2022/06/05 01:30:30;;;;;;;0.00;0.00;;;29.20;39.70;;;;;;5070129;28;20037;-73
2022/06/05 01:33:13;;;;;;;2.80;1.30;;;28.70;39.60;;;;;;5068954;28;20476;-73
2022/06/05 01:35:46;;;;;;;0.22;0.22;;;26.90;43.70;;;;;;5064396;28;20034;-73
2022/06/05 01:38:18;;;;;;;0.00;0.00;;;26.20;44.90;;;;;;5068872;28;20021;-73
2022/06/05 01:40:53;;;;;;;1.80;1.70;;;26.20;45.10;;;;;;5072235;28;20036;-73
2022/06/05 01:43:31;;;;;;;4.22;2.78;;;26.10;43.80;;;;;;5070591;28;20020;-73
2022/06/05 01:46:06;;;;;;;1.05;1.05;;;25.20;44.70;;;;;;5072439;28;20541;-72
2022/06/05 01:48:40;;;;;;;1.08;0.98;;;25.10;43.80;;;;;;5071496;28;20158;-73
2022/06/05 01:51:15;;;;;;;0.00;0.00;;;25.10;44.30;;;;;;5066359;28;20016;-73
2022/06/05 01:53:47;;;;;;;1.58;1.20;;;25.90;46.20;;;;;;5068188;28;20070;-73
2022/06/05 01:56:40;;;;;;;3.35;3.08;;;26.40;43.70;;;;;;5050365;28;20059;-73
2022/06/05 01:59:42;;;;;;;0.63;0.63;;;26.80;43.00;;;;;;5068094;28;20020;-73
2022/06/05 02:02:13;;;;;;;1.58;1.50;;;27.20;43.40;;;;;;5066232;28;20047;-73
2022/06/05 02:04:46;;;;;;;0.00;0.00;;;27.20;42.70;;;;;;5070293;28;20024;-73
2022/06/05 02:07:23;;;;;;;0.10;0.10;;;27.00;41.80;;;;;;5067413;28;20033;-73
2022/06/05 02:10:28;;;;;;;5.63;5.38;;;27.00;41.60;;;;;;5071583;28;20024;-73
2022/06/05 02:12:56;;;;;;;0.05;0.05;;;26.90;41.70;;;;;;5060458;28;20048;-73
2022/06/05 02:15:22;;;;;;;1.75;0.40;;;27.00;41.50;;;;;;5070951;28;20120;-73
2022/06/05 02:17:50;;;;;;;0.03;0.03;;;27.60;41.90;;;;;;5072122;28;20027;-73
2022/06/05 02:20:17;;;;;;;2.38;1.00;;;27.70;40.90;;;;;;5072461;28;20032;-73
2022/06/05 02:22:49;;;;;;;1.15;1.15;;;28.00;41.40;;;;;;5070211;28;20317;-73
2022/06/05 02:25:20;;;;;;;0.00;0.00;;;27.80;42.00;;;;;;5075182;28;20052;-73
2022/06/05 02:27:46;;;;;;;1.77;0.40;;;28.30;41.30;;;;;;5075156;28;20056;-73
2022/06/05 02:30:15;;;;;;;0.00;0.00;;;27.70;40.10;;;;;;5075839;28;20124;-74
2022/06/05 02:32:55;;;;;;;0.03;0.03;;;27.30;41.30;;;;;;5076168;28;20035;-71
2022/06/05 02:35:57;;;;;;;0.20;0.20;;;27.60;41.90;;;;;;5076512;28;20112;-72
2022/06/05 02:38:31;;;;;;;0.10;0.10;;;28.30;40.50;;;;;;5075591;28;20436;-73
2022/06/05 02:41:16;;;;;;;0.10;0.10;;;28.70;39.90;;;;;;5075518;28;20020;-73
2022/06/05 02:47:12;;;;;;;15.60;3.15;;;29.30;39.70;;;;;;5075880;28;20031;-74
2022/06/05 02:49:48;;;;;;;0.00;0.00;;;29.80;37.90;;;;;;5074723;28;20061;-73
2022/06/05 02:52:14;;;;;;;0.00;0.00;;;29.30;37.70;;;;;;5075478;28;20040;-72
2022/06/05 02:54:57;;;;;;;0.00;0.00;;;29.60;39.70;;;;;;5075680;28;20400;-72
2022/06/05 02:57:23;;;;;;;0.10;0.10;;;30.30;36.90;;;;;;5075576;28;20053;-72
2022/06/05 02:59:49;;;;;;;0.00;0.00;;;29.90;36.40;;;;;;5075291;28;20082;-72
2022/06/05 03:04:59;;;;;;;0.35;0.32;;;30.80;34.10;;;;;;5075400;28;20024;-72
2022/06/05 03:07:25;;;;;;;0.00;0.00;;;30.10;35.00;;;;;;5075573;28;20461;-74
2022/06/05 03:09:51;;;;;;;0.00;0.00;;;31.20;34.80;;;;;;5074194;28;20363;-73
2022/06/05 03:12:17;;;;;;;0.25;0.17;;;31.70;33.70;;;;;;5075310;28;20481;-73
2022/06/05 03:14:43;;;;;;;2.15;2.05;;;31.90;32.80;;;;;;5068959;28;20043;-72
2022/06/05 03:17:09;;;;;;;0.00;0.00;;;31.10;33.70;;;;;;5066945;28;20032;-72
2022/06/05 03:19:35;;;;;;;0.37;0.07;;;31.70;33.10;;;;;;5071644;28;20056;-73
2022/06/05 03:22:02;;;;;;;0.00;0.00;;;31.40;33.00;;;;;;5064456;28;21167;-73
2022/06/05 03:24:28;;;;;;;0.00;0.00;;;30.50;33.60;;;;;;5073713;28;20024;-72
2022/06/05 03:26:54;;;;;;;0.00;0.00;;;30.40;34.50;;;;;;5070084;28;20016;-72
2022/06/05 03:29:21;;;;;;;0.00;0.00;;;30.10;33.70;;;;;;5071332;28;20032;-72
2022/06/05 03:31:47;;;;;;;0.00;0.00;;;30.00;33.80;;;;;;5068483;28;20062;-73
2022/06/05 03:34:16;;;;;;;0.00;0.00;;;30.10;33.50;;;;;;5067394;28;20098;-73
2022/06/05 03:36:44;;;;;;;0.08;0.03;;;29.50;34.00;;;;;;5069133;28;20550;-73
2022/06/05 03:39:10;;;;;;;0.00;0.00;;;30.40;34.30;;;;;;5072363;28;20035;-72
2022/06/05 03:41:37;;;;;;;0.95;0.85;;;30.80;33.70;;;;;;5067947;28;20032;-73
2022/06/05 03:44:03;;;;;;;2.30;0.65;;;30.90;33.50;;;;;;5068084;28;20020;-72
2022/06/05 03:46:29;;;;;;;0.00;0.00;;;30.70;33.30;;;;;;5072781;28;20048;-72
2022/06/05 03:48:55;;;;;;;0.20;0.20;;;28.70;36.20;;;;;;5068925;28;20453;-72
2022/06/05 03:51:24;;;;;;;0.20;0.20;;;28.90;35.70;;;;;;5071116;28;20405;-73
2022/06/05 03:53:50;;;;;;;0.00;0.00;;;28.90;36.90;;;;;;5073502;28;20036;-73
2022/06/05 03:56:20;;;;;;;0.00;0.00;;;28.60;36.80;;;;;;5070013;28;20112;-73
2022/06/05 03:58:47;;;;;;;0.10;0.10;;;28.00;37.00;;;;;;5073499;28;20055;-72
2022/06/05 04:01:16;;;;;;;0.00;0.00;;;27.90;37.10;;;;;;5069536;28;20029;-73
2022/06/05 04:03:42;;;;;;;0.00;0.00;;;27.30;38.90;;;;;;5074542;28;20079;-73
2022/06/05 04:06:11;;;;;;;0.00;0.00;;;27.00;39.80;;;;;;5074278;28;20031;-72
2022/06/05 04:08:38;;;;;;;0.00;0.00;;;26.30;39.70;;;;;;5072446;28;20028;-72
2022/06/05 04:11:08;;;;;;;0.00;0.00;;;26.40;41.60;;;;;;5070540;28;20516;-73
2022/06/05 04:13:35;;;;;;;0.00;0.00;;;26.60;40.60;;;;;;5072953;28;20432;-73
2022/06/05 04:16:01;;;;;;;0.80;0.30;;;27.00;40.00;;;;;;5058767;28;20032;-72
2022/06/05 04:18:27;;;;;;;0.00;0.00;;;26.70;41.90;;;;;;5071598;28;20032;-73
2022/06/05 04:20:53;;;;;;;0.00;0.00;;;26.50;41.90;;;;;;5070660;28;20025;-73
2022/06/05 04:23:19;;;;;;;0.55;0.38;;;26.80;41.30;;;;;;5071567;28;20031;-73
2022/06/05 04:25:45;;;;;;;0.17;0.17;;;26.10;42.10;;;;;;5070987;28;20016;-73
2022/06/05 04:28:11;;;;;;;0.00;0.00;;;25.80;42.10;;;;;;5072848;28;20024;-73
2022/06/05 04:30:38;;;;;;;0.00;0.00;;;25.80;41.50;;;;;;5066264;28;20048;-72
2022/06/05 04:33:05;;;;;;;1.75;1.00;;;25.40;42.20;;;;;;5066461;28;20036;-72
2022/06/05 04:35:32;;;;;;;0.00;0.00;;;25.50;43.10;;;;;;5070261;28;20444;-74
2022/06/05 04:37:59;;;;;;;0.00;0.00;;;25.70;42.50;;;;;;5071300;28;20012;-73
2022/06/05 04:40:26;;;;;;;0.77;0.77;;;25.90;42.60;;;;;;5070567;28;20085;-73
2022/06/05 04:42:53;;;;;;;0.10;0.00;;;25.60;42.00;;;;;;5065006;28;20107;-73
2022/06/05 04:45:20;;;;;;;0.00;0.00;;;25.50;42.80;;;;;;5069924;28;20031;-73
2022/06/05 04:47:46;;;;;;;0.00;0.00;;;25.20;41.30;;;;;;5067598;28;20021;-73
2022/06/05 04:50:12;;;;;;;1.95;1.85;;;25.40;39.80;;;;;;5066711;28;20032;-72
2022/06/05 04:52:39;;;;;;;0.00;0.00;;;25.70;40.20;;;;;;5067381;28;20393;-71
2022/06/05 04:55:05;;;;;;;0.00;0.00;;;25.60;41.80;;;;;;5067597;28;20477;-72
2022/06/05 04:57:33;;;;;;;0.00;0.00;;;25.60;42.40;;;;;;5065474;28;20024;-72
2022/06/05 04:59:59;;;;;;;0.00;0.00;;;25.60;41.30;;;;;;5069854;28;20029;-72
2022/06/05 05:02:26;;;;;;;0.00;0.00;;;26.00;41.20;;;;;;5066680;28;20066;-73
2022/06/05 05:04:52;;;;;;;0.00;0.00;;;26.30;40.20;;;;;;5067585;28;20048;-73
2022/06/05 05:07:18;;;;;;;0.00;0.00;;;26.40;39.00;;;;;;5067070;28;20028;-73
2022/06/05 05:09:44;;;;;;;0.00;0.00;;;26.00;38.80;;;;;;5067957;28;20021;-73
2022/06/05 05:12:10;;;;;;;0.00;0.00;;;26.00;39.80;;;;;;5064638;28;20089;-73
2022/06/05 05:14:38;;;;;;;0.13;0.03;;;26.30;40.30;;;;;;5068208;28;20065;-73
2022/06/05 05:17:04;;;;;;;0.93;0.30;;;26.50;40.00;;;;;;5066964;28;20401;-72
2022/06/05 05:19:30;;;;;;;0.00;0.00;;;26.40;40.10;;;;;;5069818;28;20397;-72
2022/06/05 05:21:56;;;;;;;0.00;0.00;;;26.00;40.50;;;;;;5059318;28;20426;-73
2022/06/05 05:24:22;;;;;;;0.00;0.00;;;25.80;42.00;;;;;;5063345;28;20021;-72
2022/06/05 05:26:48;;;;;;;0.00;0.00;;;26.00;41.40;;;;;;5066356;28;20029;-73
2022/06/05 05:29:14;;;;;;;0.00;0.00;;;25.90;40.60;;;;;;5067020;28;20396;-73
2022/06/05 05:31:42;;;;;;;0.00;0.00;;;26.10;40.60;;;;;;5068133;28;20088;-73
2022/06/05 05:34:09;;;;;;;0.03;0.03;;;26.40;38.50;;;;;;5069114;28;20492;-72
2022/06/05 05:36:36;;;;;;;0.00;0.00;;;26.50;37.10;;;;;;5052310;28;20380;-72
2022/06/05 05:42:05;;;;;;;1.20;1.08;;;26.50;37.00;;;;;;5063978;28;20508;-72
2022/06/05 05:44:32;;;;;;;0.00;0.00;;;26.10;36.90;;;;;;5051054;28;20025;-73
2022/06/05 05:46:59;;;;;;;0.00;0.00;;;26.20;37.90;;;;;;5069009;28;20056;-74
2022/06/05 05:49:25;;;;;;;0.00;0.00;;;26.10;37.70;;;;;;5064240;28;20055;-73
2022/06/05 05:51:51;;;;;;;0.10;0.10;;;26.20;36.90;;;;;;5066630;28;20473;-74
2022/06/05 05:54:17;;;;;;;0.00;0.00;;;26.50;37.00;;;;;;5059323;28;20116;-73
2022/06/05 05:56:43;;;;;;;0.08;0.05;;;26.70;37.50;;;;;;5067416;28;20034;-71
2022/06/05 05:59:09;;;;;;;0.10;0.00;;;26.50;36.80;;;;;;5071222;28;20115;-73
2022/06/05 06:01:35;;;;;;;0.00;0.00;;;26.20;37.80;;;;;;5072357;28;20036;-73
2022/06/05 06:04:02;;;;;;;0.00;0.00;;;26.30;37.60;;;;;;5075379;28;20031;-73
2022/06/05 06:06:34;;;;;;;0.10;0.10;;;26.30;38.20;;;;;;5070441;28;20082;-74
2022/06/05 06:09:00;;;;;;;0.00;0.00;;;26.30;38.10;;;;;;5067384;28;20034;-73
2022/06/05 06:11:27;;;;;;;1.33;1.30;;;26.40;38.30;;;;;;5069239;28;20059;-73
2022/06/05 06:13:53;;;;;;;0.03;0.00;;;26.60;37.30;;;;;;5072110;28;20024;-74
2022/06/05 06:16:19;;;;;;;0.05;0.03;;;26.50;36.50;;;;;;5049711;28;20025;-74
2022/06/05 06:18:45;;;;;;;0.00;0.00;;;26.30;36.40;;;;;;5064410;28;20108;-73
2022/06/05 06:21:13;;;;;;;0.20;0.20;;;26.40;35.70;;;;;;5067381;28;20028;-72
2022/06/05 06:23:39;;;;;;;0.00;0.00;;;26.50;34.50;;;;;;5072954;28;20551;-72
2022/06/05 06:26:06;;;;;;;2.80;2.63;;;26.60;37.30;;;;;;5075621;28;20448;-72
2022/06/05 06:28:32;;;;;;;0.00;0.00;;;26.80;37.00;;;;;;5067899;28;20059;-72
2022/06/05 06:31:02;;;;;;;0.00;0.00;;;26.80;36.10;;;;;;5069920;28;20067;-74
2022/06/05 06:33:28;;;;;;;0.00;0.00;;;26.70;35.40;;;;;;5067383;28;20035;-74
2022/06/05 06:35:54;;;;;;;0.20;0.10;;;26.80;35.30;;;;;;5071417;28;20025;-73
2022/06/05 06:38:20;;;;;;;0.00;0.00;;;27.00;36.00;;;;;;5068431;28;20032;-74
2022/06/05 06:40:46;;;;;;;6.13;0.30;;;26.60;36.20;;;;;;5050392;28;20028;-72
2022/06/05 06:43:12;;;;;;;0.70;0.45;;;26.70;36.20;;;;;;5063446;28;20032;-72
2022/06/05 06:45:38;;;;;;;0.57;0.38;;;26.60;36.40;;;;;;5066317;28;20086;-73
2022/06/05 06:48:04;;;;;;;0.00;0.00;;;26.80;35.80;;;;;;5066017;28;20423;-73
2022/06/05 06:50:30;;;;;;;0.03;0.03;;;26.70;35.50;;;;;;5063043;28;20035;-73
2022/06/05 06:52:56;;;;;;;0.00;0.00;;;26.50;35.80;;;;;;5064757;28;20028;-73
2022/06/05 06:55:22;;;;;;;0.00;0.00;;;26.50;36.80;;;;;;5063114;28;20083;-73
2022/06/05 06:57:49;;;;;;;0.00;0.00;;;26.70;37.70;;;;;;5065171;28;20037;-72
2022/06/05 07:00:18;;;;;;;0.00;0.00;;;27.10;36.40;;;;;;5068982;28;20123;-73
2022/06/05 07:02:45;;;;;;;0.08;0.05;;;26.80;36.00;;;;;;5067579;28;20481;-73
2022/06/05 07:05:11;;;;;;;1.85;0.20;;;26.80;35.70;;;;;;5066157;28;20043;-73
2022/06/05 07:07:37;;;;;;;0.43;0.43;;;26.70;35.20;;;;;;5070634;28;20017;-73
2022/06/05 07:10:05;;;;;;;0.40;0.13;;;26.40;35.50;;;;;;5067616;28;20028;-74
2022/06/05 07:12:35;;;;;;;0.52;0.50;;;26.90;35.60;;;;;;5043636;28;20315;-73
2022/06/05 07:15:06;;;;;;;0.52;0.35;;;26.70;36.00;;;;;;5068200;28;20031;-72
2022/06/05 07:17:32;;;;;;;0.00;0.00;;;26.60;35.50;;;;;;5070379;28;20629;-72
2022/06/05 07:19:58;;;;;;;0.00;0.00;;;26.60;35.40;;;;;;5069371;28;20114;-72
2022/06/05 07:22:25;;;;;;;2.78;0.22;;;26.90;34.80;;;;;;5068897;28;20032;-73
2022/06/05 07:24:51;;;;;;;0.25;0.10;;;26.80;35.80;;;;;;5070466;28;20017;-73
2022/06/05 07:27:18;;;;;;;0.20;0.20;;;26.80;36.40;;;;;;5067403;28;20024;-73
2022/06/05 07:29:44;;;;;;;0.35;0.22;;;26.90;35.40;;;;;;5070723;28;20028;-73
2022/06/05 07:32:11;;;;;;;0.28;0.00;;;26.80;36.20;;;;;;5067920;28;20048;-72
2022/06/05 07:34:37;;;;;;;0.35;0.30;;;26.90;36.60;;;;;;5066450;28;20369;-74
2022/06/05 07:37:04;;;;;;;0.00;0.00;;;26.70;35.90;;;;;;5064237;28;20027;-74
2022/06/05 07:39:30;;;;;;;0.10;0.10;;;27.00;36.20;;;;;;5068982;28;20048;-74
2022/06/05 07:41:59;;;;;;;0.10;0.10;;;27.00;35.50;;;;;;5069926;28;20477;-73
2022/06/05 07:44:27;;;;;;;0.80;0.80;;;27.30;35.90;;;;;;5051270;28;20032;-73
2022/06/05 07:46:54;;;;;;;0.00;0.00;;;27.30;37.30;;;;;;5069928;28;20393;-73
2022/06/05 07:49:21;;;;;;;0.00;0.00;;;27.40;37.00;;;;;;5065828;28;20085;-74
2022/06/05 07:54:34;;;;;;;0.00;0.00;;;27.60;37.10;;;;;;5066499;28;20058;-74
2022/06/05 07:57:09;;;;;;;0.70;0.25;;;27.90;36.30;;;;;;5066508;28;20031;-73
2022/06/05 07:59:38;;;;;;;0.30;0.20;;;27.70;36.00;;;;;;5069095;28;20039;-73
2022/06/05 08:02:09;;;;;;;0.08;0.08;;;27.40;36.20;;;;;;5065392;28;20153;-73
2022/06/05 08:04:36;;;;;;;0.03;0.03;;;27.40;36.40;;;;;;5068734;28;20496;-72
2022/06/05 08:07:04;;;;;;;0.00;0.00;;;27.60;35.30;;;;;;5065779;28;20142;-72
2022/06/05 08:09:31;;;;;;;0.00;0.00;;;27.80;35.80;;;;;;5069783;28;20029;-74
2022/06/05 08:11:57;;;;;;;0.25;0.20;;;28.00;35.40;;;;;;5067640;28;20028;-74
2022/06/05 08:14:23;;;;;;;0.00;0.00;;;28.20;35.30;;;;;;5070921;28;20377;-72
2022/06/05 08:16:49;;;;;;;0.08;0.08;;;28.30;36.10;;;;;;5061273;28;20074;-73
2022/06/05 08:19:19;;;;;;;0.10;0.10;;;28.30;35.90;;;;;;5047134;28;20044;-72
2022/06/05 08:21:46;;;;;;;0.10;0.10;;;28.30;37.10;;;;;;5068970;28;20032;-72
2022/06/05 08:24:12;;;;;;;0.70;0.70;;;27.90;36.80;;;;;;5047761;28;20111;-74
2022/06/05 08:26:38;;;;;;;4.15;1.58;;;27.70;37.20;;;;;;5064802;28;20028;-73
2022/06/05 08:29:05;;;;;;;0.10;0.10;;;27.30;36.90;;;;;;5062961;28;20020;-73
2022/06/05 08:31:33;;;;;;;0.00;0.00;;;27.50;37.20;;;;;;5063305;28;20120;-74
2022/06/05 08:34:01;;;;;;;0.00;0.00;;;27.60;38.00;;;;;;5063893;28;20025;-72
2022/06/05 08:36:28;;;;;;;0.00;0.00;;;28.10;37.40;;;;;;5062040;28;20698;-74
2022/06/05 08:42:14;;;;;;;0.65;0.65;;;28.20;36.40;;;;;;5051816;28;20401;-73
2022/06/05 08:44:48;;;;;;;0.00;0.00;;;28.00;36.60;;;;;;5069391;28;20047;-75
2022/06/05 08:47:27;;;;;;;0.03;0.03;;;27.80;36.70;;;;;;5069861;28;20024;-73
2022/06/05 08:50:11;;;;;;;0.08;0.08;;;27.90;36.60;;;;;;5066990;28;20039;-73
2022/06/05 08:52:56;;;;;;;4.35;1.17;;;28.10;37.20;;;;;;5068187;28;20027;-74
2022/06/05 08:55:39;;;;;;;0.15;0.15;;;28.30;36.80;;;;;;5066693;28;20411;-73
2022/06/05 08:58:32;;;;;;;0.10;0.10;;;27.70;37.80;;;;;;5069965;28;20016;-73
2022/06/05 09:01:21;;;;;;;0.95;0.95;;;27.80;36.70;;;;;;5069516;28;20056;-74
2022/06/05 09:04:16;;;;;;;0.00;0.00;;;28.00;36.40;;;;;;5070180;28;20409;-73
2022/06/05 09:06:46;;;;;;;0.20;0.20;;;28.10;36.40;;;;;;5068750;28;20031;-74
2022/06/05 09:09:32;;;;;;;0.00;0.00;;;27.60;37.60;;;;;;5069363;28;20103;-73
2022/06/05 09:12:03;;;;;;;1.55;0.80;;;27.90;36.40;;;;;;5069235;28;20051;-74
2022/06/05 09:14:29;;;;;;;0.00;0.00;;;27.90;36.00;;;;;;5069478;28;20098;-74
2022/06/05 09:17:13;;;;;;;0.25;0.15;;;27.90;35.90;;;;;;5067520;28;20035;-74
2022/06/05 09:19:41;;;;;;;0.00;0.00;;;28.30;36.30;;;;;;5067583;28;20032;-74
2022/06/05 09:22:19;;;;;;;0.00;0.00;;;28.30;36.40;;;;;;5065791;28;20090;-75
2022/06/05 09:25:16;;;;;;;0.00;0.00;;;28.30;36.50;;;;;;5058447;28;20416;-74
2022/06/05 09:27:48;;;;;;;0.00;0.00;;;28.70;37.40;;;;;;5066041;28;20021;-74
2022/06/05 09:30:42;;;;;;;0.00;0.00;;;28.40;36.40;;;;;;5066262;28;20075;-74
2022/06/05 09:33:20;;;;;;;0.00;0.00;;;28.10;36.80;;;;;;5068420;28;20035;-74
2022/06/05 09:35:59;;;;;;;1.00;0.52;;;28.20;37.60;;;;;;5064234;28;20081;-73
2022/06/05 09:38:33;;;;;;;0.20;0.20;;;28.40;37.10;;;;;;5065241;28;20035;-73
2022/06/05 09:41:11;;;;;;;0.20;0.10;;;28.40;36.80;;;;;;5071777;28;20027;-72
2022/06/05 09:44:14;;;;;;;0.00;0.00;;;28.10;37.00;;;;;;5067404;28;20100;-73
2022/06/05 09:47:07;;;;;;;3.20;0.40;;;27.90;36.80;;;;;;5067277;28;20041;-74
2022/06/05 09:49:50;;;;;;;0.10;0.10;;;28.00;37.10;;;;;;5065743;28;20056;-73
2022/06/05 09:52:20;;;;;;;0.43;0.43;;;27.80;37.50;;;;;;5071260;28;20480;-74
2022/06/05 09:54:55;;;;;;;0.00;0.00;;;27.90;37.40;;;;;;5062806;28;20034;-74
2022/06/05 10:00:43;;;;;;;0.35;0.05;;;28.20;37.80;;;;;;5069461;28;20071;-72
2022/06/05 10:03:19;;;;;;;0.00;0.00;;;28.50;36.60;;;;;;5072171;28;20032;-73
2022/06/05 10:06:04;;;;;;;0.00;0.00;;;28.30;37.90;;;;;;5068553;28;20021;-74
2022/06/05 10:08:49;;;;;;;0.00;0.00;;;28.00;36.10;;;;;;5046633;28;20033;-74
2022/06/05 10:11:23;;;;;;;0.00;0.00;;;28.10;36.90;;;;;;5071103;28;20346;-73
2022/06/05 10:14:20;;;;;;;0.10;0.10;;;28.40;36.80;;;;;;5069095;28;20039;-73
2022/06/05 10:17:25;;;;;;;1.33;0.57;;;28.50;37.20;;;;;;5064382;28;20452;-75
2022/06/05 10:20:12;;;;;;;0.22;0.20;;;28.50;35.90;;;;;;5048773;28;20041;-73
2022/06/05 10:23:09;;;;;;;0.50;0.38;;;28.20;36.10;;;;;;5066302;28;20038;-74
2022/06/05 10:25:53;;;;;;;0.00;0.00;;;27.80;36.30;;;;;;5064990;28;20033;-75
2022/06/05 10:28:24;;;;;;;0.55;0.52;;;27.60;37.20;;;;;;5062794;28;20036;-74
2022/06/05 10:30:53;;;;;;;0.88;0.40;;;27.90;37.30;;;;;;5065009;28;20309;-74
2022/06/05 10:33:56;;;;;;;0.00;0.00;;;27.90;37.90;;;;;;5065613;28;20032;-73
2022/06/05 10:37:09;;;;;;;0.00;0.00;;;27.80;37.90;;;;;;5064225;28;20029;-73
2022/06/05 10:39:50;;;;;;;0.30;0.30;;;27.60;38.00;;;;;;5070174;28;20055;-73
2022/06/05 10:42:28;;;;;;;0.00;0.00;;;27.50;37.70;;;;;;5064623;28;20373;-72
2022/06/05 10:45:19;;;;;;;0.00;0.00;;;27.70;38.00;;;;;;5067428;28;20017;-74
2022/06/05 10:48:09;;;;;;;0.20;0.20;;;27.80;37.50;;;;;;5053250;28;20544;-73
2022/06/05 10:51:03;;;;;;;1.75;1.63;;;27.80;38.10;;;;;;5067025;28;20381;-73
2022/06/05 10:53:59;;;;;;;0.32;0.32;;;27.70;37.50;;;;;;5065144;28;20075;-73
2022/06/05 10:56:34;;;;;;;0.10;0.10;;;27.60;37.00;;;;;;5061456;28;20060;-73
2022/06/05 10:59:18;;;;;;;0.00;0.00;;;27.60;37.40;;;;;;5063636;28;20485;-74
2022/06/05 11:01:53;;;;;;;0.00;0.00;;;27.30;38.30;;;;;;5047016;28;20036;-73
2022/06/05 11:04:46;;;;;;;0.00;0.00;;;27.30;37.60;;;;;;5067216;28;20024;-74
2022/06/05 11:07:36;;;;;;;0.00;0.00;;;27.30;38.30;;;;;;5062821;28;20059;-73
2022/06/05 11:10:17;;;;;;;0.17;0.10;;;27.30;39.00;;;;;;5059399;28;20036;-73
2022/06/05 11:15:30;;;;;;;0.00;0.00;;;27.30;38.00;;;;;;5065701;28;20040;-74
2022/06/05 11:18:15;;;;;;;0.82;0.40;;;27.40;37.80;;;;;;5065464;28;20024;-73
2022/06/05 11:20:50;;;;;;;0.00;0.00;;;27.50;37.50;;;;;;5067885;28;20060;-74
2022/06/05 11:23:22;;;;;;;0.30;0.30;;;27.40;37.60;;;;;;5059172;28;20056;-74
2022/06/05 11:26:07;;;;;;;0.00;0.00;;;27.40;37.60;;;;;;5064674;28;20339;-72
2022/06/05 11:28:48;;;;;;;0.95;0.90;;;27.30;37.70;;;;;;5062674;28;20029;-74
2022/06/05 11:31:51;;;;;;;0.00;0.00;;;27.40;37.20;;;;;;5066954;28;20052;-73
2022/06/05 11:34:38;;;;;;;6.03;1.27;;;27.60;37.30;;;;;;5023002;28;20054;-73
2022/06/05 11:37:16;;;;;;;0.05;0.05;;;27.60;37.00;;;;;;5047935;28;20122;-74
2022/06/05 11:39:58;;;;;;;0.00;0.00;;;27.40;37.40;;;;;;5044572;28;20025;-74
2022/06/05 11:42:30;;;;;;;0.90;0.28;;;27.60;37.60;;;;;;5065954;28;20469;-73
2022/06/05 11:45:14;;;;;;;0.00;0.00;;;27.50;37.50;;;;;;5071335;28;20025;-73
2022/06/05 11:47:54;;;;;;;0.00;0.00;;;27.30;37.20;;;;;;5067734;28;20508;-74
2022/06/05 11:50:35;;;;;;;0.00;0.00;;;27.40;37.20;;;;;;5064725;28;20094;-73
2022/06/05 11:53:22;;;;;;;0.00;0.00;;;27.30;37.30;;;;;;5069859;28;20035;-73
2022/06/05 11:56:03;;;;;;;0.20;0.20;;;27.30;37.50;;;;;;5058051;28;20099;-76
2022/06/05 11:58:39;;;;;;;0.00;0.00;;;27.30;37.50;;;;;;5065240;28;20039;-73
2022/06/05 12:01:16;;;;;;;0.00;0.00;;;27.20;37.70;;;;;;5059116;28;20085;-72
2022/06/05 12:03:58;;;;;;;4.40;0.45;;;27.30;37.50;;;;;;5065768;28;20377;-74
2022/06/05 12:06:40;;;;;;;10.68;0.70;;;27.20;37.30;;;;;;5070858;28;20365;-73
2022/06/05 12:09:35;;;;;;;0.22;0.22;;;27.10;37.70;;;;;;5071185;28;20033;-72
2022/06/05 12:12:24;;;;;;;0.28;0.20;;;27.20;38.00;;;;;;5067735;28;20088;-72
2022/06/05 12:15:19;;;;;;;3.70;0.32;;;27.10;38.00;;;;;;5068644;28;20072;-72
2022/06/05 12:18:02;;;;;;;0.00;0.00;;;27.40;37.20;;;;;;5064498;28;20641;-73
2022/06/05 12:20:38;;;;;;;0.00;0.00;;;27.60;37.00;;;;;;5066354;28;20043;-73
2022/06/05 12:23:28;;;;;;;0.00;0.00;;;27.60;37.20;;;;;;5065293;28;20480;-73
2022/06/05 12:26:12;;;;;;;0.32;0.08;;;27.60;36.80;;;;;;5057090;28;20389;-74
2022/06/05 12:28:58;;;;;;;0.00;0.00;;;27.60;36.60;;;;;;5067981;28;20029;-73
2022/06/05 12:31:29;;;;;;;0.57;0.55;;;27.50;36.70;;;;;;5070134;28;20062;-73
2022/06/05 12:34:14;;;;;;;2.35;0.45;;;27.60;36.80;;;;;;5066959;28;20102;-73
2022/06/05 12:36:53;;;;;;;0.00;0.00;;;27.70;36.80;;;;;;5066834;28;20473;-73
2022/06/05 12:39:36;;;;;;;1.17;1.10;;;27.60;36.60;;;;;;5067604;28;20029;-74
2022/06/05 12:42:27;;;;;;;1.27;0.85;;;27.70;36.50;;;;;;5068783;28;20036;-74
2022/06/05 12:45:05;;;;;;;1.15;0.43;;;27.60;35.80;;;;;;5057912;28;20024;-73
2022/06/05 12:47:59;;;;;;;0.00;0.00;;;27.50;36.20;;;;;;5062540;28;20107;-74
2022/06/05 12:50:56;;;;;;;0.45;0.45;;;27.40;36.50;;;;;;5070689;28;20036;-73
2022/06/05 12:53:51;;;;;;;0.10;0.00;;;27.40;36.40;;;;;;5042939;28;20076;-72
2022/06/05 12:56:43;;;;;;;0.03;0.03;;;27.40;36.20;;;;;;5061340;28;20028;-74
2022/06/05 12:59:31;;;;;;;0.00;0.00;;;27.40;36.00;;;;;;5065590;28;20027;-73
2022/06/05 13:02:20;;;;;;;0.13;0.13;;;27.20;38.00;;;;;;5062274;28;20818;-73
2022/06/05 13:04:52;;;;;;;0.00;0.00;;;27.10;38.90;;;;;;5054683;28;20037;-73
2022/06/05 13:07:21;;;;;;;0.00;0.00;;;27.00;38.00;;;;;;5062756;28;20124;-73
2022/06/05 13:10:02;;;;;;;0.00;0.00;;;26.80;38.90;;;;;;5069295;28;20017;-73
2022/06/05 13:12:37;;;;;;;0.00;0.00;;;26.90;40.50;;;;;;5053799;28;20024;-73
2022/06/05 13:15:09;;;;;;;0.00;0.00;;;27.20;37.80;;;;;;5065841;28;20042;-73
2022/06/05 13:17:58;;;;;;;0.00;0.00;;;27.30;37.40;;;;;;5069076;28;20066;-74
2022/06/05 13:20:54;;;;;;;0.00;0.00;;;27.30;37.50;;;;;;5069363;28;20150;-73
2022/06/05 13:23:37;;;;;;;0.00;0.00;;;27.10;40.90;;;;;;5061692;28;20355;-73
2022/06/05 13:26:07;;;;;;;0.00;0.00;;;27.00;41.60;;;;;;5069386;28;20024;-73
2022/06/05 13:28:58;;;;;;;0.00;0.00;;;26.90;40.90;;;;;;5066985;28;20111;-73
2022/06/05 13:31:42;;;;;;;0.00;0.00;;;26.80;41.80;;;;;;5066298;28;20052;-73
2022/06/05 13:34:22;;;;;;;0.00;0.00;;;26.60;42.10;;;;;;5069631;28;20020;-74
2022/06/05 13:37:10;;;;;;;0.00;0.00;;;26.70;41.60;;;;;;5072145;28;20044;-74
2022/06/05 13:39:39;;;;;;;18.70;17.17;;;26.60;42.30;;;;;;5071579;28;20078;-74
2022/06/05 13:42:16;;;;;;;0.00;0.00;;;26.70;42.10;;;;;;5071895;28;20036;-73